Time;durP1;ratioP1;P1;durP2;ratioP2;P2;SDS_P1;SDS_P2;PMS_P1;PMS_P2;Temp;Humidity;BMP_temperature;BMP_pressure;BME280_temperature;BME280_humidity;BME280_pressure;Samples;Min_cycle;Max_cycle;Signal;HPM_P1;HPM_P2
2022/03/25 00:00:10;;;;;;;18.80;11.98;;;5.80;43.50;;;;;;5051869;28;20244;-68
2022/03/25 00:02:37;;;;;;;17.20;11.15;;;5.80;43.50;;;;;;5054972;28;20286;-64
2022/03/25 00:05:05;;;;;;;19.98;11.15;;;5.80;43.80;;;;;;5049355;28;20182;-63
2022/03/25 00:07:32;;;;;;;17.02;9.98;;;5.80;44.00;;;;;;5052227;28;20214;-62
2022/03/25 00:09:59;;;;;;;17.08;11.30;;;5.90;43.90;;;;;;5055996;28;20186;-63
2022/03/25 00:12:27;;;;;;;19.02;10.43;;;5.90;44.20;;;;;;5073674;28;20194;-62
2022/03/25 00:14:55;;;;;;;15.07;11.82;;;6.00;43.60;;;;;;5071458;28;20285;-62
2022/03/25 00:17:22;;;;;;;22.33;13.57;;;6.00;43.80;;;;;;5053377;28;20252;-63
2022/03/25 00:19:49;;;;;;;17.10;11.25;;;6.00;43.00;;;;;;5061009;28;20190;-63
2022/03/25 00:22:16;;;;;;;21.58;11.55;;;6.00;43.40;;;;;;5073535;28;20243;-62
2022/03/25 00:24:43;;;;;;;14.88;10.60;;;5.90;42.70;;;;;;5066787;28;20359;-63
2022/03/25 00:27:10;;;;;;;19.65;11.50;;;5.80;41.60;;;;;;5053603;28;20621;-62
2022/03/25 00:29:37;;;;;;;17.85;10.15;;;5.60;42.20;;;;;;5057752;28;20243;-63
2022/03/25 00:32:07;;;;;;;17.75;10.18;;;5.60;42.80;;;;;;5073162;28;20729;-63
2022/03/25 00:34:34;;;;;;;15.13;11.20;;;5.50;43.00;;;;;;5069059;28;20622;-62
2022/03/25 00:37:01;;;;;;;17.65;11.20;;;5.50;43.50;;;;;;5053433;28;20232;-62
2022/03/25 00:39:29;;;;;;;17.00;10.10;;;5.50;44.40;;;;;;5070619;28;20557;-62
2022/03/25 00:41:56;;;;;;;14.45;9.85;;;5.40;45.00;;;;;;5073187;28;20648;-63
2022/03/25 00:44:24;;;;;;;19.02;11.07;;;5.50;44.90;;;;;;5056578;28;20592;-63
2022/03/25 00:46:51;;;;;;;15.02;11.52;;;5.40;44.40;;;;;;5052954;28;20680;-63
2022/03/25 00:49:20;;;;;;;16.90;11.73;;;5.30;44.70;;;;;;5067823;28;20273;-66
2022/03/25 00:51:47;;;;;;;16.95;11.25;;;5.30;45.00;;;;;;5072990;28;20577;-63
2022/03/25 00:54:15;;;;;;;17.33;10.68;;;5.40;45.00;;;;;;5058968;28;20229;-63
2022/03/25 00:56:42;;;;;;;19.40;10.48;;;5.40;45.50;;;;;;5071543;28;20185;-62
2022/03/25 00:59:09;;;;;;;14.00;10.10;;;5.40;45.80;;;;;;5060327;28;20550;-62
2022/03/25 01:01:37;;;;;;;14.93;10.05;;;5.40;45.80;;;;;;5052789;28;20186;-62
2022/03/25 01:04:05;;;;;;;16.05;11.00;;;5.40;45.50;;;;;;5063339;28;20613;-63
2022/03/25 01:06:33;;;;;;;16.80;11.48;;;5.40;45.30;;;;;;5071283;28;20262;-63
2022/03/25 01:09:00;;;;;;;22.60;11.27;;;5.30;45.10;;;;;;5052685;28;20194;-63
2022/03/25 01:11:27;;;;;;;16.60;9.85;;;5.30;45.40;;;;;;5052656;28;20279;-62
2022/03/25 01:13:54;;;;;;;16.60;11.55;;;5.10;45.50;;;;;;5071933;28;20269;-63
2022/03/25 01:16:21;;;;;;;17.88;10.38;;;5.10;45.50;;;;;;5072230;28;20197;-62
2022/03/25 01:18:48;;;;;;;15.60;9.65;;;5.10;45.60;;;;;;5053905;28;20218;-63
2022/03/25 01:21:17;;;;;;;18.70;10.70;;;5.10;45.60;;;;;;5052751;28;20652;-63
2022/03/25 01:23:48;;;;;;;13.75;10.73;;;5.10;45.70;;;;;;5068773;28;20182;-62
2022/03/25 01:26:15;;;;;;;16.67;11.45;;;5.10;45.70;;;;;;5072522;28;20229;-62
2022/03/25 01:28:42;;;;;;;15.18;11.25;;;5.00;45.70;;;;;;5056599;28;20232;-62
2022/03/25 01:31:09;;;;;;;16.48;11.60;;;5.00;45.40;;;;;;5052670;28;20202;-62
2022/03/25 01:33:37;;;;;;;19.23;11.60;;;4.90;45.20;;;;;;5066427;28;20217;-62
2022/03/25 01:36:05;;;;;;;19.63;11.30;;;4.80;44.90;;;;;;5072543;28;20186;-62
2022/03/25 01:38:33;;;;;;;14.75;11.30;;;4.80;45.80;;;;;;5058686;28;20194;-62
2022/03/25 01:41:02;;;;;;;18.70;9.90;;;4.70;46.00;;;;;;5052078;28;20194;-62
2022/03/25 01:43:29;;;;;;;23.77;10.55;;;4.60;46.40;;;;;;5063970;28;20189;-62
2022/03/25 01:45:56;;;;;;;16.55;9.48;;;4.60;46.80;;;;;;5071945;28;20213;-62
2022/03/25 01:48:23;;;;;;;14.60;9.23;;;4.60;46.90;;;;;;5061126;28;20236;-62
2022/03/25 01:50:50;;;;;;;13.63;8.80;;;4.70;47.80;;;;;;5052373;28;20197;-62
2022/03/25 01:53:19;;;;;;;20.67;9.13;;;4.70;47.50;;;;;;5060937;28;20182;-62
2022/03/25 01:55:51;;;;;;;17.10;8.00;;;4.70;47.40;;;;;;5072221;28;20575;-62
2022/03/25 01:58:20;;;;;;;12.18;9.32;;;4.60;47.50;;;;;;5063299;28;20275;-63
2022/03/25 02:00:48;;;;;;;13.35;8.88;;;4.70;47.70;;;;;;5051871;28;20194;-62
2022/03/25 02:03:16;;;;;;;13.95;9.77;;;4.70;47.40;;;;;;5059433;28;20186;-62
2022/03/25 02:05:43;;;;;;;16.75;9.68;;;4.60;47.70;;;;;;5072042;28;20556;-62
2022/03/25 02:08:11;;;;;;;17.80;8.80;;;4.60;47.70;;;;;;5065548;28;20653;-63
2022/03/25 02:10:38;;;;;;;15.43;9.75;;;4.60;48.10;;;;;;5052065;28;20611;-62
2022/03/25 02:13:05;;;;;;;20.42;8.85;;;4.60;48.30;;;;;;5056371;28;20185;-62
2022/03/25 02:15:35;;;;;;;13.77;7.95;;;4.50;48.50;;;;;;5072029;28;20294;-62
2022/03/25 02:18:05;;;;;;;13.02;9.35;;;4.50;48.90;;;;;;5067981;28;20197;-62
2022/03/25 02:20:32;;;;;;;14.38;8.73;;;4.50;48.80;;;;;;5051874;28;20191;-63
2022/03/25 02:23:00;;;;;;;13.23;9.07;;;4.50;49.00;;;;;;5053738;28;20243;-63
2022/03/25 02:25:29;;;;;;;12.27;7.45;;;4.30;49.00;;;;;;5071996;28;20286;-62
2022/03/25 02:27:59;;;;;;;13.38;8.80;;;4.30;49.10;;;;;;5069970;28;20263;-62
2022/03/25 02:30:26;;;;;;;12.80;8.70;;;4.30;49.40;;;;;;5051714;28;20269;-63
2022/03/25 02:32:54;;;;;;;13.10;9.32;;;4.30;49.70;;;;;;5056025;28;20241;-62
2022/03/25 02:35:21;;;;;;;11.68;8.02;;;4.40;49.50;;;;;;5073921;28;20192;-62
2022/03/25 02:37:48;;;;;;;11.98;8.20;;;4.50;49.30;;;;;;5071743;28;20178;-62
2022/03/25 02:40:16;;;;;;;15.80;8.70;;;4.50;49.20;;;;;;5055611;28;20629;-62
2022/03/25 02:42:43;;;;;;;14.15;8.32;;;4.50;49.30;;;;;;5057259;28;20190;-63
2022/03/25 02:45:10;;;;;;;14.50;8.70;;;4.50;49.30;;;;;;5075417;28;20259;-63
2022/03/25 02:47:37;;;;;;;15.02;7.25;;;4.60;48.90;;;;;;5074225;28;20222;-62
2022/03/25 02:50:05;;;;;;;16.42;8.52;;;4.50;47.90;;;;;;5055203;28;20194;-62
2022/03/25 02:52:32;;;;;;;15.30;9.95;;;4.50;48.70;;;;;;5072594;28;20269;-63
2022/03/25 02:54:59;;;;;;;12.88;7.78;;;4.50;49.00;;;;;;5073993;28;20699;-66
2022/03/25 02:57:27;;;;;;;14.88;9.55;;;4.50;50.00;;;;;;5072391;28;20189;-62
2022/03/25 02:59:54;;;;;;;11.45;8.25;;;4.50;49.50;;;;;;5074868;28;20194;-65
2022/03/25 03:02:21;;;;;;;14.57;8.40;;;4.50;49.50;;;;;;5055077;28;20218;-63
2022/03/25 03:04:49;;;;;;;13.45;8.30;;;4.50;49.70;;;;;;5055138;28;20230;-62
2022/03/25 03:07:17;;;;;;;9.85;7.50;;;4.50;49.50;;;;;;5073365;28;20210;-63
2022/03/25 03:09:44;;;;;;;10.60;7.40;;;4.60;49.60;;;;;;5074862;28;20201;-63
2022/03/25 03:12:12;;;;;;;11.07;7.28;;;4.60;49.90;;;;;;5057524;28;20277;-63
2022/03/25 03:14:41;;;;;;;13.80;8.80;;;4.60;49.80;;;;;;5055120;28;20190;-67
2022/03/25 03:17:08;;;;;;;16.38;8.65;;;4.60;49.30;;;;;;5070261;28;20585;-62
2022/03/25 03:19:35;;;;;;;13.07;8.00;;;4.50;49.10;;;;;;5061037;28;20606;-64
2022/03/25 03:22:02;;;;;;;17.27;8.43;;;4.50;48.90;;;;;;5055294;28;20220;-62
2022/03/25 03:24:29;;;;;;;12.80;9.30;;;4.50;49.30;;;;;;5065541;28;20316;-62
2022/03/25 03:26:57;;;;;;;14.55;8.45;;;4.40;48.60;;;;;;5067871;28;20293;-62
2022/03/25 03:29:24;;;;;;;11.15;8.02;;;4.30;48.50;;;;;;5055045;28;20194;-62
2022/03/25 03:31:53;;;;;;;13.73;8.40;;;4.20;48.40;;;;;;5054342;28;20194;-62
2022/03/25 03:34:19;;;;;;;13.38;7.85;;;4.10;47.90;;;;;;5043166;28;20580;-62
2022/03/25 03:36:47;;;;;;;16.42;8.23;;;4.00;47.70;;;;;;5054586;28;20572;-62
2022/03/25 03:39:15;;;;;;;15.77;7.45;;;3.90;47.50;;;;;;5054360;28;20182;-63
2022/03/25 03:41:42;;;;;;;12.95;7.60;;;3.80;48.00;;;;;;5054812;28;20277;-62
2022/03/25 03:44:09;;;;;;;18.70;10.07;;;3.70;48.00;;;;;;5055430;28;20285;-62
2022/03/25 03:46:36;;;;;;;13.00;8.07;;;3.60;48.20;;;;;;5053598;28;20722;-61
2022/03/25 03:49:04;;;;;;;14.55;8.43;;;3.60;48.70;;;;;;5054441;28;20201;-63
2022/03/25 03:51:31;;;;;;;12.50;6.95;;;3.50;48.90;;;;;;5034774;28;20282;-62
2022/03/25 03:53:58;;;;;;;12.98;7.32;;;3.50;49.20;;;;;;5034691;28;20525;-66
2022/03/25 03:56:25;;;;;;;12.95;8.05;;;3.50;49.10;;;;;;5071643;28;20214;-62
2022/03/25 03:58:52;;;;;;;15.70;7.65;;;3.60;48.90;;;;;;5074177;28;20221;-64
2022/03/25 04:01:20;;;;;;;14.63;9.43;;;3.60;49.20;;;;;;5056865;28;20179;-63
2022/03/25 04:03:47;;;;;;;13.95;9.27;;;3.50;49.10;;;;;;5074160;28;20189;-63
2022/03/25 04:06:15;;;;;;;14.20;8.68;;;3.50;48.70;;;;;;5057547;28;20186;-62
2022/03/25 04:08:42;;;;;;;12.80;8.75;;;3.50;49.10;;;;;;5054232;28;20226;-62
2022/03/25 04:11:09;;;;;;;12.15;7.97;;;3.50;49.60;;;;;;5069146;28;20656;-62
2022/03/25 04:13:36;;;;;;;12.55;7.80;;;3.40;49.00;;;;;;5056721;28;20244;-63
2022/03/25 04:16:03;;;;;;;12.98;6.95;;;3.30;47.60;;;;;;5067205;28;20189;-62
2022/03/25 04:18:30;;;;;;;15.63;8.25;;;3.20;48.00;;;;;;5074175;28;20189;-63
2022/03/25 04:20:57;;;;;;;13.60;8.15;;;3.30;48.00;;;;;;5071910;28;20188;-63
2022/03/25 04:23:26;;;;;;;14.45;8.45;;;3.20;48.00;;;;;;5074254;28;20233;-63
2022/03/25 04:25:53;;;;;;;11.82;7.43;;;3.00;49.20;;;;;;5059163;28;20182;-63
2022/03/25 04:28:20;;;;;;;11.25;7.50;;;2.90;49.30;;;;;;5053721;28;20226;-62
2022/03/25 04:30:47;;;;;;;12.75;8.18;;;2.90;50.70;;;;;;5065612;28;20188;-63
2022/03/25 04:33:14;;;;;;;15.25;9.70;;;2.90;50.90;;;;;;5072079;28;20225;-63
2022/03/25 04:35:41;;;;;;;11.85;8.57;;;3.00;51.10;;;;;;5053666;28;20194;-62
2022/03/25 04:38:08;;;;;;;14.55;10.35;;;3.00;50.70;;;;;;5053489;28;20194;-63
2022/03/25 04:40:37;;;;;;;15.20;9.52;;;3.00;50.60;;;;;;5072816;28;20193;-63
2022/03/25 04:43:05;;;;;;;13.93;8.50;;;3.00;50.50;;;;;;5073448;28;20194;-62
2022/03/25 04:45:32;;;;;;;16.17;9.00;;;3.00;50.70;;;;;;5053937;28;20672;-63
2022/03/25 04:48:00;;;;;;;18.98;9.32;;;3.00;51.70;;;;;;5062456;28;20752;-63
2022/03/25 04:50:27;;;;;;;17.05;10.15;;;3.00;51.90;;;;;;5072580;28;20221;-62
2022/03/25 04:52:54;;;;;;;15.45;9.65;;;3.00;51.60;;;;;;5064244;28;20191;-63
2022/03/25 04:55:22;;;;;;;15.68;9.15;;;3.00;51.80;;;;;;5053001;28;20645;-63
2022/03/25 04:57:51;;;;;;;15.52;9.13;;;3.00;52.10;;;;;;5058937;28;20185;-62
2022/03/25 05:00:18;;;;;;;16.48;7.80;;;3.00;52.10;;;;;;5073095;28;20247;-62
2022/03/25 05:02:46;;;;;;;14.68;9.30;;;3.10;52.30;;;;;;5066765;28;20195;-63
2022/03/25 05:05:13;;;;;;;14.05;9.13;;;3.10;51.40;;;;;;5052826;28;20661;-63
2022/03/25 05:07:45;;;;;;;15.63;9.45;;;3.00;50.90;;;;;;5057206;28;20251;-63
2022/03/25 05:10:15;;;;;;;11.60;8.13;;;3.00;50.50;;;;;;5072909;28;20198;-62
2022/03/25 05:12:43;;;;;;;11.23;7.40;;;2.90;51.20;;;;;;5054944;28;20190;-62
2022/03/25 05:15:12;;;;;;;11.80;7.20;;;2.80;52.70;;;;;;5053415;28;20192;-62
2022/03/25 05:17:45;;;;;;;11.95;8.30;;;2.80;53.40;;;;;;5052789;28;20273;-63
2022/03/25 05:20:13;;;;;;;14.30;8.95;;;2.80;53.90;;;;;;5053747;28;20200;-62
2022/03/25 05:22:40;;;;;;;8.27;6.50;;;2.80;54.00;;;;;;5062470;28;20705;-62
2022/03/25 05:25:08;;;;;;;12.70;7.47;;;2.90;54.20;;;;;;5068309;28;20174;-62
2022/03/25 05:27:47;;;;;;;12.65;7.50;;;3.00;54.20;;;;;;5052588;28;20250;-62
2022/03/25 05:30:16;;;;;;;12.43;7.15;;;3.00;54.20;;;;;;5068219;28;20217;-63
2022/03/25 05:32:43;;;;;;;13.55;8.93;;;3.10;54.70;;;;;;5072503;28;20228;-63
2022/03/25 05:35:14;;;;;;;12.90;8.80;;;3.20;54.40;;;;;;5057759;28;20190;-62
2022/03/25 05:37:42;;;;;;;15.25;8.82;;;3.30;53.80;;;;;;5052299;28;20243;-63
2022/03/25 05:40:11;;;;;;;17.10;8.65;;;3.30;53.70;;;;;;5065949;28;20196;-63
2022/03/25 05:42:38;;;;;;;15.82;9.68;;;3.40;54.00;;;;;;5072397;28;20243;-63
2022/03/25 05:45:07;;;;;;;12.43;7.50;;;3.50;53.30;;;;;;5059051;28;20259;-63
2022/03/25 05:47:40;;;;;;;17.05;8.25;;;3.40;52.20;;;;;;5051931;28;20296;-63
2022/03/25 05:50:09;;;;;;;12.00;6.95;;;3.40;51.60;;;;;;5064463;28;20193;-63
2022/03/25 05:52:37;;;;;;;14.85;7.97;;;3.40;50.10;;;;;;5072461;28;20201;-62
2022/03/25 05:55:05;;;;;;;14.63;9.07;;;3.40;49.90;;;;;;5060354;28;20574;-62
2022/03/25 05:57:32;;;;;;;13.30;7.68;;;3.30;50.30;;;;;;5053455;28;20229;-62
2022/03/25 06:00:00;;;;;;;12.95;7.47;;;3.20;51.30;;;;;;5062119;28;20231;-63
2022/03/25 06:02:27;;;;;;;14.25;8.98;;;3.30;52.10;;;;;;5070240;28;20185;-63
2022/03/25 06:04:56;;;;;;;16.17;7.43;;;3.40;52.30;;;;;;5072274;28;20196;-62
2022/03/25 06:07:24;;;;;;;18.00;10.52;;;3.50;52.50;;;;;;5063297;28;20220;-63
2022/03/25 06:09:51;;;;;;;20.42;11.20;;;3.60;52.80;;;;;;5055329;28;20221;-63
2022/03/25 06:12:19;;;;;;;13.20;8.93;;;3.70;53.20;;;;;;5063296;28;20182;-63
2022/03/25 06:14:46;;;;;;;13.82;10.05;;;3.80;53.20;;;;;;5076218;28;20284;-63
2022/03/25 06:17:13;;;;;;;13.40;9.15;;;3.90;53.30;;;;;;5069937;28;20206;-62
2022/03/25 06:19:40;;;;;;;16.10;8.35;;;4.10;53.20;;;;;;5062020;28;20244;-62
2022/03/25 06:22:08;;;;;;;14.85;10.27;;;4.20;53.20;;;;;;5052947;28;20206;-63
2022/03/25 06:24:35;;;;;;;17.55;11.00;;;4.30;53.70;;;;;;5054203;28;20679;-66
2022/03/25 06:27:02;;;;;;;20.92;12.50;;;4.50;53.70;;;;;;5054400;28;20182;-63
2022/03/25 06:29:29;;;;;;;19.88;11.93;;;4.70;52.50;;;;;;5054003;28;20218;-63
2022/03/25 06:31:57;;;;;;;13.90;8.30;;;4.70;52.80;;;;;;5054324;28;20198;-62
2022/03/25 06:34:24;;;;;;;13.45;8.07;;;4.90;53.60;;;;;;5054579;28;20317;-63
2022/03/25 06:36:51;;;;;;;16.85;9.20;;;5.00;53.90;;;;;;5049797;28;20190;-64
2022/03/25 06:39:21;;;;;;;17.65;10.25;;;5.20;53.80;;;;;;5056546;28;20209;-63
2022/03/25 06:41:48;;;;;;;13.70;9.60;;;5.30;53.60;;;;;;5054139;28;20546;-63
2022/03/25 06:44:16;;;;;;;14.77;9.60;;;5.60;53.20;;;;;;5050551;28;20658;-63
2022/03/25 06:46:43;;;;;;;11.63;8.40;;;5.80;52.30;;;;;;5047068;28;20240;-63
2022/03/25 06:49:11;;;;;;;11.60;8.15;;;6.00;52.10;;;;;;5053842;28;20226;-63
2022/03/25 06:51:39;;;;;;;11.27;7.03;;;6.10;51.40;;;;;;5053953;28;20190;-63
2022/03/25 06:54:06;;;;;;;13.85;8.50;;;6.20;51.10;;;;;;5053619;28;20191;-63
2022/03/25 06:56:36;;;;;;;15.25;7.50;;;6.30;51.40;;;;;;5053701;28;20186;-63
2022/03/25 06:59:04;;;;;;;13.57;7.20;;;6.60;50.70;;;;;;5053752;28;20241;-63
2022/03/25 07:01:32;;;;;;;11.15;7.38;;;7.00;50.40;;;;;;5057362;28;20510;-63
2022/03/25 07:04:00;;;;;;;11.32;8.43;;;7.40;50.40;;;;;;5053969;28;20526;-64
2022/03/25 07:06:28;;;;;;;10.48;7.30;;;7.90;48.80;;;;;;5054513;28;20248;-65
2022/03/25 07:08:56;;;;;;;14.77;10.20;;;8.40;48.40;;;;;;5055170;28;20210;-63
2022/03/25 07:11:25;;;;;;;20.70;9.50;;;9.10;48.20;;;;;;5054377;28;20216;-63
2022/03/25 07:13:54;;;;;;;11.02;8.45;;;9.80;48.10;;;;;;5053248;28;20233;-65
2022/03/25 07:16:21;;;;;;;15.55;10.05;;;10.70;46.80;;;;;;5052704;28;20194;-64
2022/03/25 07:18:48;;;;;;;14.88;10.05;;;11.70;44.30;;;;;;5053731;28;20194;-64
2022/03/25 07:21:16;;;;;;;18.13;12.98;;;12.90;44.00;;;;;;5052616;28;20232;-63
2022/03/25 07:23:43;;;;;;;12.77;10.90;;;14.20;40.80;;;;;;5053556;28;20248;-69
2022/03/25 07:26:10;;;;;;;15.45;10.48;;;16.20;38.90;;;;;;5053706;28;20221;-63
2022/03/25 07:28:37;;;;;;;12.25;8.93;;;18.10;34.20;;;;;;5052617;28;20229;-64
2022/03/25 07:31:06;;;;;;;14.60;10.30;;;19.90;32.70;;;;;;5053209;28;20645;-64
2022/03/25 07:33:34;;;;;;;11.70;10.47;;;21.40;29.90;;;;;;5053637;28;20543;-64
2022/03/25 07:36:01;;;;;;;18.50;13.57;;;22.80;26.90;;;;;;5053501;28;20437;-65
2022/03/25 07:38:28;;;;;;;12.50;9.83;;;24.00;25.70;;;;;;5053128;28;20436;-64
2022/03/25 07:40:56;;;;;;;13.43;10.00;;;25.20;23.80;;;;;;5052466;28;20876;-65
2022/03/25 07:43:23;;;;;;;12.90;10.20;;;26.40;22.70;;;;;;5054890;28;20432;-64
2022/03/25 07:45:50;;;;;;;16.50;12.90;;;27.50;21.30;;;;;;5052388;28;20895;-66
2022/03/25 07:48:18;;;;;;;17.10;10.20;;;28.60;19.60;;;;;;5053400;28;20523;-68
2022/03/25 07:50:45;;;;;;;10.93;9.37;;;29.70;19.20;;;;;;5055158;28;20447;-62
2022/03/25 07:53:12;;;;;;;9.80;8.90;;;30.70;17.60;;;;;;5052732;28;20444;-63
2022/03/25 07:55:39;;;;;;;10.60;8.50;;;31.60;17.70;;;;;;5052854;28;20467;-63
2022/03/25 07:58:06;;;;;;;10.60;8.77;;;32.60;15.70;;;;;;5053037;28;20618;-62
2022/03/25 08:00:33;;;;;;;9.30;8.10;;;33.30;14.30;;;;;;5056313;28;20888;-63
2022/03/25 08:03:00;;;;;;;9.63;7.50;;;34.10;14.20;;;;;;5052935;28;20532;-62
2022/03/25 08:05:29;;;;;;;10.80;8.93;;;34.70;12.90;;;;;;5054885;28;20839;-62
2022/03/25 08:07:56;;;;;;;11.27;8.30;;;35.10;12.70;;;;;;5052897;28;20445;-63
2022/03/25 08:10:25;;;;;;;10.90;8.60;;;35.80;13.00;;;;;;5053020;28;20946;-63
2022/03/25 08:12:53;;;;;;;12.30;9.47;;;36.50;12.50;;;;;;5051802;28;20501;-64
2022/03/25 08:15:20;;;;;;;10.13;8.87;;;37.30;12.10;;;;;;5055362;28;20439;-63
2022/03/25 08:17:50;;;;;;;9.70;8.10;;;38.00;11.40;;;;;;5054847;28;20459;-62
2022/03/25 08:20:21;;;;;;;9.57;8.60;;;38.60;10.50;;;;;;5054502;28;20804;-62
2022/03/25 08:22:50;;;;;;;10.83;8.27;;;39.20;10.40;;;;;;5046947;28;20491;-63
2022/03/25 08:28:02;;;;;;;10.50;9.50;;;40.20;10.00;;;;;;5052128;28;20424;-62
2022/03/25 08:30:30;;;;;;;9.70;8.47;;;40.70;8.90;;;;;;5052492;28;20527;-62
2022/03/25 08:32:58;;;;;;;10.10;8.63;;;41.00;8.30;;;;;;5051792;28;20509;-62
2022/03/25 08:35:25;;;;;;;11.37;9.53;;;41.20;8.30;;;;;;5052138;28;20447;-63
2022/03/25 08:37:54;;;;;;;10.77;9.40;;;41.50;7.70;;;;;;5052081;28;20527;-64
2022/03/25 08:40:21;;;;;;;9.40;8.40;;;41.40;7.90;;;;;;5052020;28;20813;-63
2022/03/25 08:42:48;;;;;;;9.50;8.57;;;41.60;8.00;;;;;;5051855;28;20469;-63
2022/03/25 08:45:16;;;;;;;10.43;9.43;;;42.20;7.20;;;;;;5051811;28;20468;-62
2022/03/25 08:47:44;;;;;;;9.60;8.70;;;42.60;7.50;;;;;;5052300;28;20776;-62
2022/03/25 08:50:12;;;;;;;11.10;10.10;;;43.30;6.90;;;;;;5052370;28;20472;-63
2022/03/25 08:52:39;;;;;;;9.70;8.70;;;43.90;6.90;;;;;;5051818;28;20445;-64
2022/03/25 08:55:09;;;;;;;10.23;9.23;;;43.90;5.90;;;;;;5051980;28;20472;-62
2022/03/25 08:57:36;;;;;;;10.83;9.70;;;44.10;6.00;;;;;;5052047;28;20487;-62
2022/03/25 09:00:10;;;;;;;11.47;10.47;;;44.40;5.40;;;;;;5051982;28;20487;-63
2022/03/25 09:02:37;;;;;;;12.07;10.87;;;44.60;5.00;;;;;;5048323;28;20445;-63
2022/03/25 09:05:05;;;;;;;12.70;10.97;;;44.90;5.50;;;;;;5051572;28;21029;-64
2022/03/25 09:07:32;;;;;;;10.80;9.90;;;45.70;5.80;;;;;;5051912;28;20441;-63
2022/03/25 09:09:59;;;;;;;11.80;10.63;;;46.30;5.20;;;;;;5051183;28;20524;-63
2022/03/25 09:12:27;;;;;;;12.23;10.23;;;46.80;5.10;;;;;;5051583;28;20480;-63
2022/03/25 09:14:54;;;;;;;10.70;9.60;;;47.10;4.30;;;;;;5051780;28;20476;-64
2022/03/25 09:17:21;;;;;;;10.70;9.70;;;47.40;4.80;;;;;;5051729;28;20528;-63
2022/03/25 09:19:48;;;;;;;11.63;10.50;;;47.90;4.10;;;;;;5051278;28;20531;-64
2022/03/25 09:22:15;;;;;;;20.70;11.83;;;48.20;4.30;;;;;;5051574;28;20483;-64
2022/03/25 09:24:41;;;;;;;12.67;11.43;;;48.50;4.20;;;;;;5051662;28;20490;-63
2022/03/25 09:27:08;;;;;;;12.40;11.20;;;49.00;4.00;;;;;;5051690;28;20437;-63
2022/03/25 09:29:37;;;;;;;12.13;9.53;;;49.50;4.00;;;;;;5051240;28;20859;-65
2022/03/25 09:32:05;;;;;;;11.07;10.07;;;49.60;3.70;;;;;;5051547;28;20472;-64
2022/03/25 09:37:16;;;;;;;11.57;10.67;;;50.40;3.40;;;;;;5051257;28;20776;-62
2022/03/25 09:39:43;;;;;;;12.70;11.70;;;50.60;2.90;;;;;;5051411;28;20516;-63
2022/03/25 09:42:11;;;;;;;11.33;10.23;;;50.60;3.50;;;;;;5051057;28;20447;-64
2022/03/25 09:44:41;;;;;;;11.80;10.80;;;50.90;3.40;;;;;;5050824;28;20464;-63
2022/03/25 09:47:10;;;;;;;12.10;11.00;;;51.20;3.00;;;;;;5051163;28;20466;-63
2022/03/25 09:49:38;;;;;;;12.73;11.23;;;51.40;3.10;;;;;;5051273;28;20440;-63
2022/03/25 09:52:06;;;;;;;12.30;11.20;;;51.70;2.70;;;;;;5051078;28;20448;-64
2022/03/25 09:54:33;;;;;;;12.13;10.93;;;51.80;2.80;;;;;;5051168;28;20473;-63
2022/03/25 09:57:00;;;;;;;12.17;11.00;;;52.00;2.90;;;;;;5051295;28;20487;-63
2022/03/25 09:59:27;;;;;;;12.97;11.77;;;52.20;3.00;;;;;;5050800;28;20584;-64
2022/03/25 10:01:55;;;;;;;16.77;12.60;;;52.50;2.60;;;;;;5046873;28;20475;-63
2022/03/25 10:04:42;;;;;;;12.50;11.40;;;52.80;2.90;;;;;;5051183;28;20524;-63
2022/03/25 10:07:19;;;;;;;12.50;11.30;;;52.90;2.70;;;;;;5051157;28;20528;-63
2022/03/25 10:09:46;;;;;;;12.80;11.60;;;52.90;2.80;;;;;;5051175;28;20523;-63
2022/03/25 10:12:24;;;;;;;14.53;10.60;;;53.10;2.50;;;;;;5050570;28;20472;-63
2022/03/25 10:14:53;;;;;;;12.80;11.80;;;53.20;2.70;;;;;;5051187;28;20463;-63
2022/03/25 10:17:21;;;;;;;14.07;12.90;;;53.50;1.70;;;;;;5050697;28;20444;-64
2022/03/25 10:19:50;;;;;;;12.20;11.10;;;53.20;1.70;;;;;;5050831;28;20520;-63
2022/03/25 10:22:18;;;;;;;15.00;12.67;;;53.20;2.30;;;;;;5051112;28;20467;-63
2022/03/25 10:24:48;;;;;;;15.90;14.33;;;53.40;2.10;;;;;;5050991;28;20510;-64
2022/03/25 10:27:18;;;;;;;13.47;12.27;;;53.70;1.90;;;;;;5046701;28;20437;-63
2022/03/25 10:29:47;;;;;;;14.20;13.00;;;53.90;2.10;;;;;;5050799;28;20447;-66
2022/03/25 10:32:16;;;;;;;15.10;13.90;;;54.10;1.80;;;;;;5050967;28;20530;-63
2022/03/25 10:34:44;;;;;;;15.77;14.43;;;54.00;1.90;;;;;;5050667;28;20475;-63
2022/03/25 10:37:16;;;;;;;13.77;12.53;;;54.20;1.80;;;;;;5050964;28;20479;-63
2022/03/25 10:39:53;;;;;;;14.30;13.20;;;54.30;1.70;;;;;;5050445;28;20742;-63
2022/03/25 10:42:20;;;;;;;15.13;13.73;;;54.60;1.70;;;;;;5050855;28;20855;-64
2022/03/25 10:44:50;;;;;;;15.70;14.40;;;54.70;1.80;;;;;;5050436;28;20557;-63
2022/03/25 10:47:26;;;;;;;15.10;13.80;;;54.60;1.60;;;;;;5050075;28;20533;-66
2022/03/25 10:49:55;;;;;;;14.60;13.40;;;54.50;1.80;;;;;;5050316;28;20484;-63
2022/03/25 10:52:26;;;;;;;14.43;13.03;;;54.50;1.90;;;;;;5050801;28;20532;-64
2022/03/25 10:55:20;;;;;;;15.70;14.30;;;54.40;1.60;;;;;;5050765;28;20465;-64
2022/03/25 10:57:51;;;;;;;13.93;12.83;;;54.40;1.70;;;;;;5050289;28;20441;-67
2022/03/25 11:00:19;;;;;;;15.40;13.90;;;54.50;1.80;;;;;;5054129;28;20490;-63
2022/03/25 11:02:46;;;;;;;14.77;13.50;;;54.50;1.70;;;;;;5054195;28;20429;-65
2022/03/25 11:05:15;;;;;;;15.37;14.07;;;54.70;1.50;;;;;;5053860;28;20437;-63
2022/03/25 11:07:44;;;;;;;13.80;12.60;;;55.00;1.30;;;;;;5053954;28;20480;-64
2022/03/25 11:10:13;;;;;;;14.60;13.50;;;54.90;1.30;;;;;;5054077;28;20543;-63
2022/03/25 11:12:43;;;;;;;14.73;13.43;;;54.70;1.10;;;;;;5053372;28;20432;-63
2022/03/25 11:15:13;;;;;;;14.77;13.70;;;54.80;1.30;;;;;;5052796;28;20437;-64
2022/03/25 11:17:43;;;;;;;15.10;13.37;;;55.00;1.10;;;;;;5053868;28;20444;-63
2022/03/25 11:20:11;;;;;;;13.57;12.47;;;54.80;1.00;;;;;;5053675;28;20465;-64
2022/03/25 11:22:44;;;;;;;13.53;12.43;;;54.90;1.30;;;;;;5053819;28;20436;-64
2022/03/25 11:25:14;;;;;;;13.80;12.70;;;54.50;1.20;;;;;;5054200;28;20483;-63
2022/03/25 11:27:46;;;;;;;12.83;11.73;;;54.50;1.20;;;;;;5053640;28;20484;-63
2022/03/25 11:30:14;;;;;;;13.07;12.07;;;54.50;1.40;;;;;;5053881;28;20524;-63
2022/03/25 11:33:04;;;;;;;14.37;13.17;;;54.60;1.10;;;;;;5053564;28;20534;-63
2022/03/25 11:35:32;;;;;;;13.23;12.17;;;54.80;1.00;;;;;;5053628;28;20455;-63
2022/03/25 11:38:19;;;;;;;13.93;12.80;;;54.50;1.00;;;;;;5053374;28;20437;-63
2022/03/25 11:40:47;;;;;;;13.90;12.50;;;54.40;1.10;;;;;;5053663;28;20436;-64
2022/03/25 11:43:15;;;;;;;12.93;11.70;;;54.50;1.10;;;;;;5053501;28;20908;-63
2022/03/25 11:45:43;;;;;;;14.93;13.60;;;54.60;1.00;;;;;;5053521;28;20472;-63
2022/03/25 11:48:39;;;;;;;12.80;11.70;;;54.50;1.00;;;;;;5053196;28;20483;-63
2022/03/25 11:51:34;;;;;;;13.00;11.90;;;54.40;1.00;;;;;;5053214;28;21021;-63
2022/03/25 11:54:23;;;;;;;12.90;11.80;;;54.00;1.00;;;;;;5041274;28;20901;-64
2022/03/25 11:56:50;;;;;;;12.77;11.67;;;53.70;1.00;;;;;;5051445;28;20463;-63
2022/03/25 11:59:18;;;;;;;13.23;12.20;;;53.90;1.00;;;;;;5052918;28;20959;-63
2022/03/25 12:01:46;;;;;;;14.53;13.10;;;53.60;1.00;;;;;;5053226;28;20519;-63
2022/03/25 12:04:14;;;;;;;14.87;13.57;;;53.80;1.10;;;;;;5053162;28;20464;-63
2022/03/25 12:07:01;;;;;;;14.33;13.10;;;53.60;1.20;;;;;;5052517;28;20436;-63
2022/03/25 12:09:37;;;;;;;14.30;12.97;;;53.50;1.00;;;;;;5052882;28;20562;-63
2022/03/25 12:12:43;;;;;;;14.40;13.17;;;53.10;1.00;;;;;;5048892;28;20517;-63
2022/03/25 12:15:13;;;;;;;13.33;12.23;;;53.00;1.00;;;;;;5049639;28;20440;-64
2022/03/25 12:17:40;;;;;;;14.00;12.80;;;52.90;1.00;;;;;;5051417;28;20432;-64
2022/03/25 12:20:09;;;;;;;12.60;11.60;;;52.70;1.00;;;;;;5052909;28;20931;-63
2022/03/25 12:22:40;;;;;;;13.10;12.00;;;52.10;1.00;;;;;;5052535;28;20520;-63
2022/03/25 12:25:21;;;;;;;13.90;12.50;;;51.80;1.10;;;;;;5052621;28;20443;-64
2022/03/25 12:27:48;;;;;;;13.67;12.40;;;51.30;1.00;;;;;;5049422;28;20447;-64
2022/03/25 12:30:15;;;;;;;15.47;13.70;;;51.00;1.10;;;;;;5051031;28;20516;-64
2022/03/25 12:32:43;;;;;;;13.73;12.47;;;51.00;1.00;;;;;;5051932;28;20496;-63
2022/03/25 12:35:13;;;;;;;13.93;12.73;;;50.90;1.80;;;;;;5052120;28;20468;-63
2022/03/25 12:38:08;;;;;;;14.83;13.63;;;50.60;1.30;;;;;;5054294;28;20441;-64
2022/03/25 12:40:37;;;;;;;12.03;10.93;;;50.40;1.00;;;;;;5050725;28;20519;-63
2022/03/25 12:43:05;;;;;;;11.10;10.10;;;50.20;1.00;;;;;;5051382;28;20479;-63
2022/03/25 12:45:35;;;;;;;10.10;9.20;;;49.70;1.00;;;;;;5053034;28;20858;-64
2022/03/25 12:48:09;;;;;;;11.10;10.23;;;49.10;1.00;;;;;;5052134;28;20469;-71
2022/03/25 12:50:37;;;;;;;10.90;9.97;;;48.60;1.00;;;;;;5051722;28;20563;-63
2022/03/25 12:53:06;;;;;;;11.03;10.13;;;47.70;1.00;;;;;;5052266;28;20518;-62